Time;durP1;ratioP1;P1;durP2;ratioP2;P2;SDS_P1;SDS_P2;PMS_P1;PMS_P2;Temp;Humidity;BMP_temperature;BMP_pressure;BME280_temperature;BME280_humidity;BME280_pressure;Samples;Min_cycle;Max_cycle;Signal;HPM_P1;HPM_P2
2023/01/21 00:01:13;;;;;;;16.00;11.30;;;3.70;59.00;;;;;;4951100;28;20546;-48
2023/01/21 00:03:39;;;;;;;16.10;10.20;;;3.70;59.60;;;;;;4944858;29;20443;-51
2023/01/21 00:06:05;;;;;;;15.60;11.17;;;3.70;59.60;;;;;;4936878;28;20520;-48
2023/01/21 00:08:31;;;;;;;12.90;10.13;;;3.70;59.80;;;;;;4946480;28;20443;-52
2023/01/21 00:11:05;;;;;;;16.30;10.00;;;3.50;59.70;;;;;;4948742;28;20440;-47
2023/01/21 00:13:34;;;;;;;16.10;11.50;;;3.60;60.00;;;;;;4953403;29;20717;-50
2023/01/21 00:16:00;;;;;;;15.43;11.27;;;3.80;59.70;;;;;;4944489;28;20448;-51
2023/01/21 00:18:25;;;;;;;17.83;11.73;;;3.90;59.10;;;;;;4943839;29;20429;-49
2023/01/21 00:20:51;;;;;;;15.60;10.50;;;4.00;59.00;;;;;;4949095;29;20429;-51
2023/01/21 00:23:17;;;;;;;20.77;12.60;;;4.10;58.80;;;;;;4946553;29;20661;-49
2023/01/21 00:25:42;;;;;;;17.03;12.20;;;4.20;58.30;;;;;;4952104;28;20196;-51
2023/01/21 00:28:08;;;;;;;18.00;11.53;;;4.20;58.30;;;;;;4947697;28;20659;-48
2023/01/21 00:30:35;;;;;;;17.73;11.80;;;4.10;58.20;;;;;;4948055;28;20196;-47
2023/01/21 00:33:01;;;;;;;15.67;11.17;;;4.00;58.50;;;;;;4944381;28;20660;-53
2023/01/21 00:35:27;;;;;;;14.43;10.83;;;3.90;58.70;;;;;;4948008;28;20454;-50
2023/01/21 00:37:53;;;;;;;14.70;10.97;;;3.70;59.10;;;;;;4944363;28;20464;-50
2023/01/21 00:40:18;;;;;;;15.90;12.20;;;3.70;59.40;;;;;;4948404;28;20363;-49
2023/01/21 00:42:44;;;;;;;18.33;12.23;;;3.70;59.10;;;;;;4946832;28;20228;-49
2023/01/21 00:45:09;;;;;;;15.93;11.70;;;3.70;59.00;;;;;;4943803;28;20662;-47
2023/01/21 00:47:35;;;;;;;15.00;11.77;;;3.60;59.40;;;;;;4946091;28;20187;-48
2023/01/21 00:50:01;;;;;;;20.67;12.10;;;3.50;59.80;;;;;;4949890;28;20207;-51
2023/01/21 00:52:26;;;;;;;14.70;10.80;;;3.60;59.70;;;;;;4945884;28;20211;-49
2023/01/21 00:54:52;;;;;;;18.37;11.30;;;3.70;59.40;;;;;;4948072;28;20266;-50
2023/01/21 00:57:18;;;;;;;18.33;11.60;;;3.70;59.30;;;;;;4949663;28;20207;-50
2023/01/21 00:59:43;;;;;;;14.63;11.10;;;3.70;59.40;;;;;;4945647;28;20196;-52
2023/01/21 01:02:09;;;;;;;17.97;11.27;;;3.70;59.30;;;;;;4950413;28;20318;-48
2023/01/21 01:04:35;;;;;;;13.70;10.87;;;3.90;58.90;;;;;;4948636;29;20239;-48
2023/01/21 01:07:01;;;;;;;14.97;11.20;;;3.80;58.40;;;;;;4952138;28;20271;-53
2023/01/21 01:09:27;;;;;;;15.47;12.50;;;3.90;58.80;;;;;;4952818;28;20531;-48
2023/01/21 01:11:52;;;;;;;16.60;12.33;;;4.00;58.50;;;;;;4941529;29;20204;-49
2023/01/21 01:14:18;;;;;;;17.00;11.50;;;3.80;58.40;;;;;;4945122;28;20668;-48
2023/01/21 01:16:44;;;;;;;13.73;11.30;;;3.90;58.50;;;;;;4948428;28;20195;-47
2023/01/21 01:19:11;;;;;;;13.87;11.33;;;4.00;58.20;;;;;;4949156;28;20473;-51
2023/01/21 01:21:36;;;;;;;15.73;12.27;;;4.00;58.10;;;;;;4946445;28;20263;-51
2023/01/21 01:24:02;;;;;;;15.83;10.93;;;4.10;57.70;;;;;;4949704;28;20448;-48
2023/01/21 01:26:28;;;;;;;15.77;12.20;;;4.10;57.30;;;;;;4945280;28;20195;-49
2023/01/21 01:28:55;;;;;;;17.83;11.13;;;4.20;57.30;;;;;;4951028;28;20522;-50
2023/01/21 01:31:20;;;;;;;16.17;10.87;;;4.20;57.00;;;;;;4943126;28;20562;-48
2023/01/21 01:33:47;;;;;;;17.93;12.00;;;4.20;56.60;;;;;;4941891;28;20571;-52
2023/01/21 01:36:15;;;;;;;16.83;11.50;;;4.20;56.50;;;;;;4948360;28;20251;-48
2023/01/21 01:38:41;;;;;;;19.10;11.70;;;4.20;56.40;;;;;;4951300;28;20440;-47
2023/01/21 01:41:07;;;;;;;19.93;11.17;;;3.90;56.50;;;;;;4944867;28;20443;-50
2023/01/21 01:43:56;;;;;;;13.40;11.17;;;3.50;57.20;;;;;;4946253;28;20530;-47
2023/01/21 01:46:23;;;;;;;17.13;11.60;;;3.50;57.90;;;;;;4944282;28;20463;-50
2023/01/21 01:49:00;;;;;;;14.30;11.33;;;3.50;57.70;;;;;;4950902;28;20454;-48
2023/01/21 01:51:32;;;;;;;23.03;10.83;;;3.40;57.60;;;;;;4949567;28;20453;-49
2023/01/21 01:53:59;;;;;;;12.13;9.53;;;3.40;57.60;;;;;;4947889;28;20961;-50
2023/01/21 01:56:26;;;;;;;18.20;11.60;;;3.40;57.70;;;;;;4945982;28;21313;-50
2023/01/21 01:58:52;;;;;;;15.40;10.73;;;3.40;57.70;;;;;;4947233;28;20459;-47
2023/01/21 02:01:18;;;;;;;13.43;9.80;;;3.50;57.60;;;;;;4950353;28;20465;-50
2023/01/21 02:03:53;;;;;;;14.33;11.57;;;3.50;57.60;;;;;;4950880;28;20443;-47
2023/01/21 02:06:18;;;;;;;13.90;10.47;;;3.50;57.50;;;;;;4954073;28;20238;-51
2023/01/21 02:08:46;;;;;;;14.83;10.50;;;3.70;57.20;;;;;;4950535;28;20833;-47
2023/01/21 02:11:17;;;;;;;17.20;10.80;;;3.80;56.90;;;;;;4949519;28;20192;-48
2023/01/21 02:13:48;;;;;;;14.90;11.47;;;3.80;56.40;;;;;;4953606;28;20450;-47
2023/01/21 02:16:33;;;;;;;15.60;10.37;;;4.00;56.00;;;;;;4952467;28;20447;-47
2023/01/21 02:19:02;;;;;;;15.67;10.93;;;3.90;55.60;;;;;;4954537;28;20465;-47
2023/01/21 02:21:46;;;;;;;14.90;10.50;;;3.90;55.50;;;;;;4952703;28;20451;-48
2023/01/21 02:24:49;;;;;;;14.87;10.33;;;3.80;55.70;;;;;;4954906;28;20431;-47
2023/01/21 02:27:35;;;;;;;16.03;10.93;;;3.50;55.70;;;;;;4949534;28;20474;-49
2023/01/21 02:30:25;;;;;;;11.30;10.10;;;3.10;57.10;;;;;;4952847;28;20876;-48
2023/01/21 02:32:56;;;;;;;16.07;10.20;;;3.00;57.40;;;;;;4947396;28;20586;-49
2023/01/21 02:35:38;;;;;;;16.40;9.90;;;2.80;57.50;;;;;;4950995;28;20450;-47
2023/01/21 02:38:19;;;;;;;14.10;10.57;;;2.90;57.80;;;;;;4945498;28;21042;-48
2023/01/21 02:41:02;;;;;;;14.67;11.10;;;3.10;57.50;;;;;;4948690;28;20959;-48
2023/01/21 02:43:39;;;;;;;16.70;12.00;;;3.20;57.00;;;;;;4953806;28;20487;-48
2023/01/21 02:46:37;;;;;;;15.00;9.43;;;3.40;56.60;;;;;;4952029;28;20534;-47
2023/01/21 02:49:30;;;;;;;17.83;10.63;;;3.20;56.50;;;;;;4910117;29;20464;-47
2023/01/21 02:51:56;;;;;;;14.87;9.80;;;3.30;56.70;;;;;;4948605;28;20950;-50
2023/01/21 02:54:39;;;;;;;15.20;10.50;;;3.40;56.40;;;;;;4950955;28;20444;-48
2023/01/21 02:57:08;;;;;;;12.77;9.87;;;3.40;56.10;;;;;;4949199;28;20211;-49
2023/01/21 02:59:35;;;;;;;15.60;11.80;;;3.50;56.00;;;;;;4945256;28;20455;-48
2023/01/21 03:02:19;;;;;;;13.90;11.10;;;3.50;55.70;;;;;;4942782;28;21009;-48
2023/01/21 03:05:05;;;;;;;15.13;10.63;;;3.60;55.50;;;;;;4957518;28;21018;-48
2023/01/21 03:07:35;;;;;;;12.33;9.37;;;3.60;55.20;;;;;;4948834;28;20554;-47
2023/01/21 03:10:11;;;;;;;14.80;10.57;;;3.60;55.20;;;;;;4939602;28;20466;-50
2023/01/21 03:13:03;;;;;;;18.20;10.50;;;3.40;55.00;;;;;;4945817;28;20475;-47
2023/01/21 03:18:39;;;;;;;16.47;10.80;;;3.50;55.40;;;;;;4949586;28;20895;-47
2023/01/21 03:21:09;;;;;;;13.83;9.77;;;3.30;55.20;;;;;;4950039;28;20483;-48
2023/01/21 03:23:41;;;;;;;17.53;11.17;;;3.30;55.60;;;;;;4950996;28;20495;-49
2023/01/21 03:26:09;;;;;;;14.33;10.50;;;3.50;55.60;;;;;;4949893;28;20869;-49
2023/01/21 03:28:41;;;;;;;13.60;10.43;;;3.40;55.30;;;;;;4952106;28;20443;-47
2023/01/21 03:31:15;;;;;;;12.20;9.07;;;3.50;55.40;;;;;;4950566;28;20813;-48
2023/01/21 03:33:45;;;;;;;11.23;10.00;;;3.50;55.70;;;;;;4950978;28;20471;-47
2023/01/21 03:36:25;;;;;;;16.00;10.20;;;3.50;54.80;;;;;;4934062;29;20939;-48
2023/01/21 03:38:54;;;;;;;13.27;10.43;;;3.60;54.70;;;;;;4949275;28;20514;-50
2023/01/21 03:41:30;;;;;;;13.50;10.13;;;3.60;54.60;;;;;;4949252;28;20443;-47
2023/01/21 03:43:57;;;;;;;13.90;10.50;;;3.50;54.40;;;;;;4951478;28;20931;-49
2023/01/21 03:46:59;;;;;;;17.13;11.17;;;3.60;54.90;;;;;;4949828;28;20440;-46
2023/01/21 03:49:50;;;;;;;13.17;9.70;;;3.50;54.20;;;;;;4947305;28;20466;-49
2023/01/21 03:52:18;;;;;;;15.23;10.30;;;3.50;54.10;;;;;;4947878;28;20458;-49
2023/01/21 03:54:46;;;;;;;15.47;10.03;;;3.50;54.20;;;;;;4950524;28;20447;-48
2023/01/21 03:57:12;;;;;;;16.77;9.50;;;3.40;54.20;;;;;;4951025;28;20440;-47
2023/01/21 03:59:38;;;;;;;11.60;9.07;;;3.30;54.40;;;;;;4949619;28;20479;-49
2023/01/21 04:02:03;;;;;;;18.10;11.00;;;3.30;54.70;;;;;;4948933;28;20606;-47
2023/01/21 04:04:29;;;;;;;15.77;10.30;;;3.30;54.90;;;;;;4950816;28;20195;-48
2023/01/21 04:06:54;;;;;;;13.47;9.93;;;3.40;54.60;;;;;;4949654;28;20966;-49
2023/01/21 04:09:20;;;;;;;15.30;10.20;;;3.30;54.30;;;;;;4947219;28;20200;-47
2023/01/21 04:11:45;;;;;;;15.70;10.33;;;3.30;54.50;;;;;;4950651;28;20280;-48
2023/01/21 04:14:11;;;;;;;13.00;9.23;;;3.10;54.50;;;;;;4946212;28;20830;-48
2023/01/21 04:16:37;;;;;;;14.90;8.97;;;3.10;54.60;;;;;;4949146;28;20192;-46
2023/01/21 04:19:02;;;;;;;12.10;8.90;;;3.10;54.60;;;;;;4950389;28;20542;-48
2023/01/21 04:21:29;;;;;;;11.70;9.20;;;3.10;54.70;;;;;;4950300;28;20567;-47
2023/01/21 04:23:54;;;;;;;14.40;9.10;;;3.10;54.60;;;;;;4948153;28;20589;-48
2023/01/21 04:26:20;;;;;;;12.23;9.30;;;3.00;54.70;;;;;;4949423;28;20463;-47
2023/01/21 04:28:46;;;;;;;11.43;9.07;;;3.10;54.60;;;;;;4949202;28;21253;-47
2023/01/21 04:31:11;;;;;;;12.77;8.87;;;3.00;54.60;;;;;;4950470;28;20310;-47
2023/01/21 04:33:37;;;;;;;10.50;8.40;;;3.10;54.80;;;;;;4948030;28;20200;-47
2023/01/21 04:36:03;;;;;;;13.30;9.60;;;3.10;54.70;;;;;;4951310;28;20208;-47
2023/01/21 04:38:29;;;;;;;16.30;9.67;;;3.10;54.40;;;;;;4950071;28;20609;-47
2023/01/21 04:40:54;;;;;;;12.20;8.57;;;3.20;54.30;;;;;;4948755;28;20471;-47
2023/01/21 04:43:20;;;;;;;12.80;9.97;;;3.20;54.10;;;;;;4948175;28;20694;-47
2023/01/21 04:45:46;;;;;;;10.33;8.47;;;3.30;54.00;;;;;;4947306;28;20208;-47
2023/01/21 04:48:11;;;;;;;12.57;8.10;;;3.30;53.70;;;;;;4945746;28;20192;-49
2023/01/21 04:50:37;;;;;;;14.83;8.67;;;3.30;53.50;;;;;;4951497;28;20464;-47
2023/01/21 04:53:03;;;;;;;31.20;17.97;;;3.20;53.40;;;;;;4949064;28;20279;-47
2023/01/21 04:55:28;;;;;;;29.10;17.00;;;3.10;53.90;;;;;;4947155;28;20200;-48
2023/01/21 04:57:54;;;;;;;21.23;13.50;;;3.10;53.60;;;;;;4949870;28;20211;-47
2023/01/21 05:00:20;;;;;;;16.13;11.23;;;3.10;53.30;;;;;;4950411;28;20200;-48
2023/01/21 05:02:45;;;;;;;15.83;10.33;;;3.00;53.20;;;;;;4941448;28;20239;-47
2023/01/21 05:05:11;;;;;;;14.13;9.40;;;3.00;53.20;;;;;;4949901;28;20651;-47
2023/01/21 05:07:37;;;;;;;13.83;10.20;;;2.90;53.30;;;;;;4947733;28;20219;-47
2023/01/21 05:10:03;;;;;;;13.07;10.07;;;2.80;53.90;;;;;;4949444;28;20278;-48
2023/01/21 05:12:28;;;;;;;11.57;9.03;;;2.80;54.50;;;;;;4938719;28;20271;-52
2023/01/21 05:14:56;;;;;;;13.43;10.77;;;2.90;54.70;;;;;;4949507;28;20559;-47
2023/01/21 05:17:22;;;;;;;16.03;10.23;;;2.80;54.60;;;;;;4945721;28;20199;-47
2023/01/21 05:19:49;;;;;;;12.43;8.40;;;2.90;54.70;;;;;;4940351;28;20439;-47
2023/01/21 05:22:15;;;;;;;12.93;8.30;;;2.90;54.70;;;;;;4945974;28;20227;-50
2023/01/21 05:24:41;;;;;;;12.63;9.57;;;2.90;54.50;;;;;;4935635;28;20455;-49
2023/01/21 05:27:07;;;;;;;12.90;10.00;;;3.00;54.40;;;;;;4944886;28;20534;-46
2023/01/21 05:29:32;;;;;;;14.60;10.03;;;3.00;54.30;;;;;;4946470;28;20255;-47
2023/01/21 05:31:58;;;;;;;11.33;8.80;;;3.00;54.10;;;;;;4951269;28;20885;-47
2023/01/21 05:34:23;;;;;;;16.47;10.13;;;3.00;54.00;;;;;;4947089;28;20199;-47
2023/01/21 05:36:49;;;;;;;12.20;9.60;;;3.00;53.80;;;;;;4948782;28;20207;-47
2023/01/21 05:39:15;;;;;;;14.43;9.50;;;3.00;53.60;;;;;;4949697;28;20219;-47
2023/01/21 05:41:40;;;;;;;14.63;10.10;;;3.00;53.50;;;;;;4949871;28;20226;-48
2023/01/21 05:44:08;;;;;;;22.40;13.63;;;3.00;53.50;;;;;;4953856;28;20196;-47
2023/01/21 05:46:33;;;;;;;26.17;13.70;;;3.00;53.50;;;;;;4948144;28;20219;-47
2023/01/21 05:48:59;;;;;;;16.40;10.90;;;2.90;53.30;;;;;;4945902;28;20538;-47
2023/01/21 05:51:24;;;;;;;13.83;9.70;;;2.90;53.10;;;;;;4951309;28;20600;-49
2023/01/21 05:53:50;;;;;;;15.90;10.60;;;2.90;53.10;;;;;;4944741;28;20204;-47
2023/01/21 05:56:15;;;;;;;14.73;9.77;;;2.90;52.90;;;;;;4952690;28;20200;-47
2023/01/21 05:58:41;;;;;;;15.03;9.57;;;2.80;52.90;;;;;;4951292;28;20211;-48
2023/01/21 06:01:07;;;;;;;12.53;9.27;;;2.80;53.10;;;;;;4952302;28;20238;-47
2023/01/21 06:03:32;;;;;;;11.20;8.70;;;2.80;53.20;;;;;;4951423;28;20231;-47
2023/01/21 06:05:58;;;;;;;10.90;8.40;;;2.80;53.50;;;;;;4952297;28;20591;-48
2023/01/21 06:08:23;;;;;;;12.53;9.07;;;2.80;53.50;;;;;;4953103;28;20196;-49
2023/01/21 06:10:49;;;;;;;13.47;8.90;;;2.80;53.50;;;;;;4953974;28;20192;-47
2023/01/21 06:13:15;;;;;;;9.87;7.80;;;2.80;53.70;;;;;;4951088;28;20227;-46
2023/01/21 06:15:40;;;;;;;9.63;7.90;;;2.80;53.50;;;;;;4951680;28;20660;-48
2023/01/21 06:18:06;;;;;;;12.17;7.83;;;2.80;53.50;;;;;;4949146;28;20291;-47
2023/01/21 06:20:32;;;;;;;8.93;6.30;;;2.80;53.30;;;;;;4952128;28;20530;-47
2023/01/21 06:22:59;;;;;;;13.97;10.40;;;2.80;56.50;;;;;;4948003;29;20316;-47
2023/01/21 06:25:25;;;;;;;13.10;9.57;;;3.30;59.50;;;;;;4953916;28;20199;-47
2023/01/21 06:27:54;;;;;;;12.40;9.50;;;3.80;59.50;;;;;;4952472;28;20836;-49
2023/01/21 06:30:20;;;;;;;13.17;8.47;;;4.20;58.90;;;;;;4951608;28;20200;-48
2023/01/21 06:32:46;;;;;;;12.00;9.23;;;4.60;58.00;;;;;;4949278;28;20459;-48
2023/01/21 06:35:11;;;;;;;11.00;8.57;;;4.90;56.80;;;;;;4948361;28;20448;-47
2023/01/21 06:37:37;;;;;;;12.60;9.63;;;5.00;54.50;;;;;;4946309;29;20866;-51
2023/01/21 06:40:03;;;;;;;18.87;12.97;;;4.90;51.80;;;;;;4950866;28;20203;-47
2023/01/21 06:42:29;;;;;;;17.63;13.07;;;4.60;50.70;;;;;;4951731;28;20235;-49
2023/01/21 06:44:54;;;;;;;14.80;11.20;;;4.40;50.30;;;;;;4954256;29;20447;-46
2023/01/21 06:47:20;;;;;;;17.07;12.33;;;4.10;49.90;;;;;;4952544;28;20192;-48
2023/01/21 06:49:45;;;;;;;15.80;11.00;;;3.90;49.80;;;;;;4952468;28;20279;-48
2023/01/21 06:52:11;;;;;;;13.53;9.60;;;3.70;49.90;;;;;;4955256;28;20215;-47
2023/01/21 06:54:37;;;;;;;14.03;10.23;;;3.60;50.10;;;;;;4954105;29;20235;-47
2023/01/21 06:57:02;;;;;;;10.83;9.70;;;3.40;50.30;;;;;;4953503;28;20203;-49
2023/01/21 06:59:28;;;;;;;12.17;9.77;;;3.30;50.60;;;;;;4953453;28;20564;-48
2023/01/21 07:01:54;;;;;;;14.77;10.33;;;3.20;51.00;;;;;;4954148;28;20224;-47
2023/01/21 07:04:19;;;;;;;12.80;9.70;;;3.10;51.20;;;;;;4954455;28;20306;-47
2023/01/21 07:06:45;;;;;;;13.87;9.93;;;3.10;51.50;;;;;;4953208;28;20200;-48
2023/01/21 07:09:10;;;;;;;13.50;9.80;;;3.00;51.70;;;;;;4953842;28;20239;-47
2023/01/21 07:11:36;;;;;;;16.90;10.27;;;3.00;52.00;;;;;;4952719;28;20188;-49
2023/01/21 07:14:01;;;;;;;15.73;11.20;;;3.00;52.10;;;;;;4953047;28;20200;-50
2023/01/21 07:16:27;;;;;;;18.30;10.90;;;3.00;52.20;;;;;;4951444;28;20203;-47
2023/01/21 07:18:53;;;;;;;15.27;10.03;;;3.00;52.40;;;;;;4951599;28;20200;-47
2023/01/21 07:21:18;;;;;;;16.93;11.27;;;3.00;52.60;;;;;;4949518;28;20287;-47
2023/01/21 07:23:45;;;;;;;16.10;10.17;;;3.00;52.70;;;;;;4949064;28;20227;-50
2023/01/21 07:26:11;;;;;;;14.10;10.77;;;3.00;52.90;;;;;;4951215;28;20651;-48
2023/01/21 07:28:36;;;;;;;16.27;10.00;;;3.00;53.20;;;;;;4952434;28;20579;-47
2023/01/21 07:31:02;;;;;;;18.13;12.67;;;3.00;53.50;;;;;;4948763;28;20232;-48
2023/01/21 07:33:28;;;;;;;18.47;12.67;;;3.00;53.80;;;;;;4950258;28;20196;-52
2023/01/21 07:35:54;;;;;;;15.90;11.07;;;3.00;54.10;;;;;;4944859;28;20447;-47
2023/01/21 07:38:20;;;;;;;12.43;9.73;;;3.00;54.30;;;;;;4950385;28;20220;-47
2023/01/21 07:40:49;;;;;;;14.70;10.87;;;3.00;54.30;;;;;;4950068;28;20199;-50
2023/01/21 07:43:16;;;;;;;16.13;10.47;;;3.10;54.20;;;;;;4946258;28;20639;-51
2023/01/21 07:45:42;;;;;;;18.70;10.60;;;3.10;54.30;;;;;;4947652;28;20447;-48
2023/01/21 07:48:08;;;;;;;11.50;9.10;;;3.10;54.40;;;;;;4950690;28;20444;-48
2023/01/21 07:50:35;;;;;;;15.03;10.13;;;3.00;55.00;;;;;;4947281;28;20926;-52
2023/01/21 07:53:01;;;;;;;15.10;10.90;;;3.10;54.70;;;;;;4946928;28;20440;-49
2023/01/21 07:55:27;;;;;;;15.67;10.07;;;3.10;54.60;;;;;;4942389;28;20624;-49
2023/01/21 07:57:55;;;;;;;17.53;9.23;;;3.20;54.60;;;;;;4950351;28;20443;-49
2023/01/21 08:00:22;;;;;;;14.07;9.20;;;3.20;54.60;;;;;;4948203;28;20502;-48
2023/01/21 08:02:53;;;;;;;14.30;9.97;;;3.20;54.60;;;;;;4950685;28;20498;-51
2023/01/21 08:05:18;;;;;;;12.63;10.70;;;3.20;54.70;;;;;;4948825;28;20964;-53
2023/01/21 08:07:44;;;;;;;16.17;11.20;;;3.30;54.70;;;;;;4951261;28;20471;-50
2023/01/21 08:10:10;;;;;;;13.57;10.80;;;3.40;54.50;;;;;;4947800;28;20659;-52
2023/01/21 08:12:35;;;;;;;14.53;9.93;;;3.40;54.30;;;;;;4942002;28;21186;-48
2023/01/21 08:15:01;;;;;;;17.03;10.07;;;3.40;54.40;;;;;;4943969;28;20658;-49
2023/01/21 08:17:26;;;;;;;14.20;12.33;;;3.40;54.60;;;;;;4951908;28;20596;-48
2023/01/21 08:19:52;;;;;;;14.13;10.30;;;3.50;54.90;;;;;;4949677;28;20199;-49
2023/01/21 08:22:18;;;;;;;18.90;10.60;;;3.50;55.10;;;;;;4948994;28;20255;-48
2023/01/21 08:24:43;;;;;;;17.90;11.77;;;3.50;55.00;;;;;;4949445;28;20271;-51
2023/01/21 08:27:09;;;;;;;17.43;11.03;;;3.60;55.20;;;;;;4951453;28;20227;-49
2023/01/21 08:29:34;;;;;;;19.60;11.50;;;3.60;55.40;;;;;;4951058;28;20202;-48
2023/01/21 08:32:58;;;;;;;17.27;12.10;;;3.60;55.40;;;;;;5052997;28;20595;-45
2023/01/21 08:35:23;;;;;;;19.97;12.90;;;3.60;55.20;;;;;;5044837;28;20609;-52
2023/01/21 08:37:49;;;;;;;15.73;11.10;;;3.70;55.30;;;;;;5044341;28;20192;-51
2023/01/21 08:40:15;;;;;;;19.97;13.40;;;3.80;55.30;;;;;;5045167;28;20663;-52
2023/01/21 08:42:41;;;;;;;19.13;13.63;;;3.80;55.10;;;;;;5047700;28;20197;-46
2023/01/21 08:45:07;;;;;;;19.47;11.60;;;3.90;55.00;;;;;;5049415;28;20660;-49
2023/01/21 08:47:32;;;;;;;15.70;11.73;;;3.90;55.40;;;;;;5043794;28;20194;-47
2023/01/21 08:49:58;;;;;;;13.70;10.90;;;3.80;55.60;;;;;;5047297;28;20443;-46
2023/01/21 08:52:24;;;;;;;16.87;11.20;;;3.90;55.90;;;;;;5041452;28;20252;-48
2023/01/21 08:54:49;;;;;;;17.90;11.90;;;4.00;55.80;;;;;;5033187;28;20193;-47
2023/01/21 08:57:15;;;;;;;18.13;12.43;;;4.00;55.70;;;;;;5042014;28;21985;-45
2023/01/21 08:59:40;;;;;;;18.77;13.00;;;4.10;55.80;;;;;;5045803;28;20196;-51
2023/01/21 09:02:07;;;;;;;18.07;13.70;;;4.10;55.80;;;;;;5044469;28;20196;-50
2023/01/21 09:04:33;;;;;;;19.47;13.63;;;4.20;55.90;;;;;;5043063;28;20208;-47
2023/01/21 09:06:58;;;;;;;21.50;14.50;;;4.20;55.90;;;;;;5044495;28;20926;-48
2023/01/21 09:09:24;;;;;;;24.70;15.17;;;4.10;56.30;;;;;;5046308;28;20581;-46
2023/01/21 09:11:51;;;;;;;22.17;15.50;;;4.20;56.50;;;;;;5044917;28;20232;-47
2023/01/21 09:14:17;;;;;;;24.97;16.50;;;4.30;56.60;;;;;;5045207;28;20564;-49
2023/01/21 09:16:42;;;;;;;30.90;15.40;;;4.30;56.80;;;;;;5041412;28;20443;-51
2023/01/21 09:19:08;;;;;;;25.60;16.20;;;4.30;56.90;;;;;;5043555;28;20435;-48
2023/01/21 09:21:33;;;;;;;23.17;16.77;;;4.30;57.10;;;;;;5043756;28;20189;-48
2023/01/21 09:23:59;;;;;;;21.73;13.77;;;4.30;57.20;;;;;;5041144;28;20219;-48
2023/01/21 09:26:25;;;;;;;26.90;15.67;;;4.40;57.00;;;;;;5045285;28;20644;-48
2023/01/21 09:28:56;;;;;;;25.20;16.40;;;4.40;56.90;;;;;;5043686;28;20221;-48
2023/01/21 09:31:24;;;;;;;21.90;14.17;;;4.60;56.80;;;;;;5045534;28;20525;-46
2023/01/21 09:33:52;;;;;;;21.10;15.13;;;4.70;56.30;;;;;;5038497;28;20443;-49
2023/01/21 09:36:20;;;;;;;22.07;15.90;;;4.70;56.10;;;;;;5038191;28;20465;-50
2023/01/21 09:38:47;;;;;;;23.20;14.97;;;4.80;55.80;;;;;;5044655;28;20956;-46
2023/01/21 09:41:28;;;;;;;24.40;14.63;;;4.80;55.80;;;;;;5044762;28;20797;-46
2023/01/21 09:44:01;;;;;;;21.00;14.90;;;4.90;55.50;;;;;;5032973;28;20447;-45
2023/01/21 09:46:39;;;;;;;23.90;15.20;;;4.90;55.40;;;;;;5031844;28;20486;-46
2023/01/21 09:49:12;;;;;;;21.37;14.23;;;5.00;55.50;;;;;;5030674;28;20436;-46
2023/01/21 09:52:07;;;;;;;23.27;14.60;;;5.00;55.60;;;;;;5025777;28;20574;-46
2023/01/21 09:54:34;;;;;;;21.80;13.33;;;5.00;55.70;;;;;;5029053;28;21597;-51
2023/01/21 09:57:37;;;;;;;25.37;16.47;;;5.00;55.90;;;;;;5023411;28;20445;-47
2023/01/21 10:00:06;;;;;;;21.87;14.43;;;5.10;56.00;;;;;;5019616;28;20452;-46
2023/01/21 10:03:01;;;;;;;22.80;12.97;;;5.10;55.70;;;;;;5030476;28;20496;-46
2023/01/21 10:05:51;;;;;;;23.30;15.97;;;5.20;55.70;;;;;;5029323;28;20451;-47
2023/01/21 10:08:23;;;;;;;20.93;14.60;;;5.20;55.70;;;;;;5028910;28;20853;-47
2023/01/21 10:10:59;;;;;;;19.50;12.63;;;5.20;55.50;;;;;;5027838;28;20448;-49
2023/01/21 10:13:41;;;;;;;22.90;13.67;;;5.20;55.50;;;;;;5020525;28;20447;-46
2023/01/21 10:16:13;;;;;;;23.03;14.13;;;5.20;55.70;;;;;;5030424;28;20862;-45
2023/01/21 10:18:42;;;;;;;25.40;14.90;;;5.10;56.00;;;;;;5019651;28;21104;-45
2023/01/21 10:21:21;;;;;;;28.00;15.20;;;5.10;56.30;;;;;;5015768;28;20482;-46
2023/01/21 10:23:51;;;;;;;21.73;14.40;;;5.10;56.20;;;;;;5022250;28;20450;-54
2023/01/21 10:26:17;;;;;;;23.77;14.37;;;5.10;56.50;;;;;;5030587;28;20458;-59
2023/01/21 10:28:50;;;;;;;24.40;14.70;;;5.20;56.70;;;;;;5031615;28;20818;-58
2023/01/21 10:31:25;;;;;;;22.00;13.80;;;5.30;56.60;;;;;;5030378;28;20700;-58
2023/01/21 10:33:51;;;;;;;27.63;15.93;;;5.30;56.40;;;;;;5026500;28;20455;-58
2023/01/21 10:36:38;;;;;;;30.43;17.57;;;5.40;56.30;;;;;;5026224;28;20867;-57
2023/01/21 10:39:14;;;;;;;19.40;14.30;;;5.40;56.30;;;;;;5023606;28;20465;-54
2023/01/21 10:41:58;;;;;;;30.97;14.10;;;5.50;56.20;;;;;;5027846;28;20558;-52
2023/01/21 10:44:55;;;;;;;23.43;14.07;;;5.50;56.30;;;;;;5029786;28;20460;-55
2023/01/21 10:47:46;;;;;;;23.03;15.97;;;5.60;56.50;;;;;;5020034;28;20432;-53
2023/01/21 10:50:23;;;;;;;23.10;14.13;;;5.60;56.30;;;;;;5029064;28;20495;-53
2023/01/21 10:53:06;;;;;;;23.60;14.43;;;5.60;56.40;;;;;;5029273;28;20530;-52
2023/01/21 10:55:57;;;;;;;23.77;15.37;;;5.70;56.40;;;;;;5028145;28;20468;-54
2023/01/21 10:58:28;;;;;;;22.37;13.70;;;5.70;56.50;;;;;;5026074;28;20450;-55
2023/01/21 11:00:57;;;;;;;23.43;14.77;;;5.80;56.50;;;;;;5025837;28;20459;-56
2023/01/21 11:03:40;;;;;;;25.43;16.90;;;5.80;56.70;;;;;;5028684;28;20490;-55
2023/01/21 11:06:08;;;;;;;21.17;13.50;;;5.80;56.50;;;;;;5022610;28;20452;-56
2023/01/21 11:08:33;;;;;;;19.97;14.00;;;5.80;56.30;;;;;;5028423;28;21172;-55
2023/01/21 11:11:00;;;;;;;25.80;13.97;;;5.70;56.80;;;;;;5030966;28;20479;-59
2023/01/21 11:13:26;;;;;;;20.67;13.50;;;5.70;56.90;;;;;;5029305;28;20440;-59
2023/01/21 11:15:54;;;;;;;22.07;14.57;;;5.70;56.70;;;;;;5025864;28;20479;-60
2023/01/21 11:18:39;;;;;;;20.17;13.53;;;5.80;56.60;;;;;;5027311;28;20255;-60
2023/01/21 11:21:19;;;;;;;20.43;13.67;;;5.70;56.60;;;;;;5030935;28;20482;-61
2023/01/21 11:24:00;;;;;;;19.47;13.20;;;5.80;56.70;;;;;;5030414;28;20455;-60
2023/01/21 11:26:28;;;;;;;23.23;14.33;;;5.80;56.40;;;;;;5026719;28;20482;-60
2023/01/21 11:29:13;;;;;;;21.30;14.07;;;5.90;56.30;;;;;;5028797;28;20502;-60
2023/01/21 11:31:41;;;;;;;18.57;12.37;;;5.90;56.40;;;;;;5024206;28;20488;-60
2023/01/21 11:34:16;;;;;;;19.80;13.13;;;5.80;56.50;;;;;;5019183;28;21238;-60
2023/01/21 11:37:03;;;;;;;18.10;12.60;;;5.80;56.70;;;;;;5027405;28;20443;-60
2023/01/21 11:39:39;;;;;;;18.77;12.87;;;5.80;56.60;;;;;;5025209;28;21013;-60
2023/01/21 11:42:16;;;;;;;24.53;14.10;;;5.80;56.90;;;;;;5030343;28;20447;-60
2023/01/21 11:45:00;;;;;;;17.57;12.43;;;5.90;56.90;;;;;;5028111;28;20432;-60
2023/01/21 11:47:49;;;;;;;18.00;11.40;;;6.00;56.80;;;;;;5029414;28;20455;-60
2023/01/21 11:50:16;;;;;;;18.23;11.50;;;6.10;56.70;;;;;;5027461;28;20450;-59
2023/01/21 11:52:42;;;;;;;17.90;11.70;;;6.00;56.60;;;;;;5029645;28;20542;-60
2023/01/21 11:55:23;;;;;;;18.30;11.90;;;6.10;56.50;;;;;;5023210;28;20448;-60
2023/01/21 11:57:54;;;;;;;19.70;11.87;;;6.20;56.00;;;;;;5024450;28;20225;-60
2023/01/21 12:00:23;;;;;;;18.17;10.77;;;6.10;56.00;;;;;;5030055;28;20938;-60
2023/01/21 12:02:58;;;;;;;15.70;10.43;;;6.20;55.90;;;;;;5029526;28;20522;-60
2023/01/21 12:05:39;;;;;;;16.87;11.10;;;6.20;56.00;;;;;;5021741;28;20449;-60
2023/01/21 12:08:06;;;;;;;17.07;11.90;;;6.00;55.70;;;;;;5028181;28;20443;-60
2023/01/21 12:10:44;;;;;;;17.00;9.93;;;6.00;56.10;;;;;;5029026;28;20465;-60
2023/01/21 12:13:29;;;;;;;16.20;10.57;;;5.70;56.50;;;;;;5025239;28;21812;-60
2023/01/21 12:16:14;;;;;;;17.63;10.60;;;5.70;57.20;;;;;;5027719;28;20459;-60
2023/01/21 12:19:24;;;;;;;19.77;11.70;;;5.90;56.90;;;;;;5029435;28;20440;-60
2023/01/21 12:22:19;;;;;;;15.77;10.87;;;5.90;56.70;;;;;;5027046;28;20815;-59
2023/01/21 12:24:47;;;;;;;19.00;12.93;;;6.00;56.70;;;;;;5022464;28;20447;-60
2023/01/21 12:27:44;;;;;;;16.10;11.70;;;5.90;56.80;;;;;;5029146;28;20440;-60
2023/01/21 12:30:39;;;;;;;23.53;13.47;;;5.80;57.10;;;;;;5028818;28;20484;-60
2023/01/21 12:33:10;;;;;;;22.90;13.30;;;5.70;57.60;;;;;;5028936;28;20451;-60
2023/01/21 12:35:47;;;;;;;16.50;11.80;;;6.00;57.40;;;;;;5028371;28;20859;-60
2023/01/21 12:38:18;;;;;;;17.03;10.33;;;6.20;56.90;;;;;;5028638;28;20460;-60
2023/01/21 12:40:58;;;;;;;18.93;11.90;;;6.00;56.30;;;;;;5029005;28;20447;-60
2023/01/21 12:43:38;;;;;;;22.90;12.33;;;5.70;57.00;;;;;;5022310;28;20475;-60
2023/01/21 12:46:17;;;;;;;19.60;11.27;;;5.80;57.20;;;;;;5020078;28;20853;-60
2023/01/21 12:49:05;;;;;;;16.50;11.90;;;6.00;57.10;;;;;;5024769;28;20494;-60
2023/01/21 12:51:48;;;;;;;18.13;11.53;;;6.10;56.80;;;;;;5027623;28;20958;-60
2023/01/21 12:54:36;;;;;;;17.63;11.90;;;6.10;56.40;;;;;;5022832;28;20451;-60
2023/01/21 12:57:19;;;;;;;17.63;12.00;;;6.20;56.40;;;;;;5028850;28;20784;-60
2023/01/21 12:59:57;;;;;;;15.70;10.20;;;6.30;56.20;;;;;;5025992;28;20933;-60